createdAt,value
2023-01-18T06:14:34.549Z,10.00
2023-01-18T06:17:03.069Z,10.50
2023-01-18T06:19:30.300Z,9.80
2023-01-18T06:21:56.883Z,10.70
2023-01-18T06:24:23.569Z,11.10
2023-01-18T06:26:51.107Z,11.10
2023-01-18T06:29:18.072Z,10.40
2023-01-18T06:31:46.557Z,10.80
2023-01-18T06:34:14.333Z,10.40
2023-01-18T06:36:41.457Z,11.70
2023-01-18T06:39:08.212Z,11.20
2023-01-18T06:41:39.067Z,11.40
2023-01-18T06:44:13.893Z,11.00
2023-01-18T06:46:43.786Z,11.60
2023-01-18T06:49:13.103Z,10.10
2023-01-18T06:51:41.222Z,10.30
2023-01-18T06:54:10.035Z,11.20
2023-01-18T06:56:37.532Z,11.70
2023-01-18T06:59:08.297Z,10.50
2023-01-18T07:01:35.759Z,10.70
2023-01-18T07:04:03.969Z,9.40
2023-01-18T07:06:33.316Z,11.30
2023-01-18T07:09:00.232Z,11.20
2023-01-18T07:11:29.252Z,12.00
2023-01-18T07:13:58.782Z,11.10
2023-01-18T07:16:29.972Z,11.20
2023-01-18T07:19:12.418Z,12.20
2023-01-18T07:21:45.682Z,12.60
2023-01-18T07:24:14.446Z,11.70
2023-01-18T07:26:47.332Z,11.10
2023-01-18T07:29:17.419Z,13.10
2023-01-18T07:35:41.321Z,11.70
2023-01-18T07:38:27.014Z,11.40
2023-01-18T07:41:07.914Z,12.40
2023-01-18T07:43:50.712Z,11.10
2023-01-18T07:46:46.239Z,11.90
2023-01-18T07:49:25.938Z,10.70
2023-01-18T07:52:33.109Z,11.30
2023-01-18T07:55:06.902Z,12.90
2023-01-18T07:57:53.162Z,10.40
2023-01-18T08:03:30.670Z,11.40
2023-01-18T08:06:03.791Z,11.50
2023-01-18T11:15:25.326Z,9.70
2023-01-18T11:23:12.618Z,9.00
2023-01-18T11:26:40.714Z,9.10
2023-01-18T11:29:22.138Z,8.00
2023-01-18T11:32:23.564Z,7.90
2023-01-18T11:35:03.549Z,7.30
2023-01-18T11:37:46.061Z,9.80
2023-01-18T11:40:36.144Z,8.40
2023-01-18T11:43:49.394Z,8.10
2023-01-18T11:53:49.234Z,7.20
2023-01-18T12:00:34.145Z,6.40
2023-01-18T12:04:26.667Z,6.50
2023-01-18T12:08:00.595Z,8.10
2023-01-18T12:10:51.918Z,6.70
2023-01-18T12:14:30.072Z,6.60
2023-01-18T12:17:23.650Z,7.20
2023-01-18T12:27:25.960Z,5.60
2023-01-18T12:30:25.949Z,6.00
2023-01-18T12:37:19.741Z,6.20
2023-01-18T12:40:06.453Z,5.50
2023-01-18T12:43:18.006Z,7.20
2023-01-18T12:46:42.913Z,6.00
2023-01-18T12:49:29.246Z,6.10
2023-01-18T12:52:30.857Z,5.70
2023-01-18T12:55:25.693Z,7.40
2023-01-18T13:01:26.504Z,5.40
2023-01-18T13:04:28.889Z,6.80
2023-01-18T13:07:06.818Z,6.30
2023-01-18T13:09:49.953Z,5.30
2023-01-18T13:12:25.902Z,6.70
2023-01-18T13:15:06.010Z,6.60
2023-01-18T13:17:52.662Z,5.50
2023-01-18T13:20:53.888Z,6.30
2023-01-18T13:23:28.387Z,7.20
2023-01-18T13:26:14.660Z,7.00
2023-01-18T13:28:47.630Z,6.60
2023-01-18T13:33:45.651Z,6.10
2023-01-18T13:36:25.497Z,5.30
2023-01-18T13:39:00.805Z,5.40
2023-01-18T13:41:31.264Z,6.80
2023-01-18T13:44:09.448Z,6.40
2023-01-18T13:46:43.151Z,6.30
2023-01-18T13:49:45.054Z,5.60
2023-01-18T13:52:38.193Z,6.50
2023-01-18T13:55:24.953Z,6.20
2023-01-18T13:57:58.070Z,5.50
2023-01-18T14:00:26.629Z,5.10
2023-01-18T14:03:01.806Z,6.50
2023-01-18T14:05:56.906Z,5.80
2023-01-18T14:08:30.041Z,5.30
2023-01-18T14:11:07.590Z,5.30
2023-01-18T14:13:46.689Z,6.20
2023-01-18T14:16:38.357Z,6.70
2023-01-18T14:19:17.538Z,5.50
2023-01-18T14:22:19.000Z,5.50
2023-01-18T14:25:18.009Z,7.30
2023-01-18T14:27:51.850Z,6.90
2023-01-18T14:30:46.422Z,5.90
2023-01-18T14:33:27.503Z,5.40
2023-01-18T14:35:58.219Z,7.10
2023-01-18T14:38:36.426Z,7.00
2023-01-18T14:41:06.409Z,7.70
2023-01-18T14:46:17.171Z,6.30
2023-01-18T14:48:55.911Z,7.40
2023-01-18T14:51:25.355Z,7.50
2023-01-18T14:54:04.887Z,6.30
2023-01-18T14:56:43.832Z,7.50
2023-01-18T14:59:30.707Z,6.90
2023-01-18T15:02:37.865Z,6.20
2023-01-18T15:05:17.470Z,6.50
2023-01-18T15:07:50.319Z,7.50
2023-01-18T15:10:19.986Z,6.10
2023-01-18T15:12:54.129Z,5.80
2023-01-18T15:15:31.316Z,6.40
2023-01-18T15:18:11.634Z,6.50
2023-01-18T15:20:59.916Z,5.60
2023-01-18T15:23:34.808Z,5.80
2023-01-18T15:26:04.102Z,7.60
2023-01-18T15:28:39.934Z,6.30
2023-01-18T15:31:16.742Z,6.60
2023-01-18T15:33:44.904Z,6.50
2023-01-18T15:36:23.791Z,7.50
2023-01-18T15:38:53.273Z,5.20
2023-01-18T15:41:23.889Z,5.40
2023-01-18T15:43:51.690Z,6.30
2023-01-18T15:46:18.826Z,5.70
2023-01-18T15:48:54.440Z,5.60
2023-01-18T15:51:42.884Z,4.90
2023-01-18T15:54:18.468Z,5.70
2023-01-18T15:56:46.027Z,7.30
2023-01-18T15:59:18.481Z,6.20
2023-01-18T16:02:23.098Z,5.30
2023-01-18T16:05:32.891Z,6.50
2023-01-18T16:08:19.446Z,8.20
2023-01-18T16:10:52.934Z,6.20
2023-01-18T16:13:23.307Z,5.60
2023-01-18T16:16:03.156Z,7.20
2023-01-18T16:18:30.310Z,6.60
2023-01-18T16:20:57.675Z,6.90
2023-01-18T16:23:25.586Z,4.80
2023-01-18T16:25:54.112Z,5.60
2023-01-18T16:28:39.439Z,6.70
2023-01-18T16:31:08.714Z,5.70
2023-01-18T16:33:35.648Z,6.60
2023-01-18T16:36:18.027Z,6.20
2023-01-18T16:38:45.825Z,7.40
2023-01-18T16:41:16.994Z,5.90
2023-01-18T16:43:45.199Z,5.40
2023-01-18T16:46:12.370Z,5.30
2023-01-18T16:48:39.379Z,5.20
2023-01-18T16:51:17.112Z,6.10
2023-01-18T16:53:44.549Z,4.80
2023-01-18T16:56:14.380Z,5.30
2023-01-18T16:58:43.171Z,6.10
2023-01-18T17:01:14.757Z,6.00
2023-01-18T17:03:42.753Z,5.30
2023-01-18T17:06:16.905Z,5.10
2023-01-18T17:08:44.033Z,5.90
2023-01-18T17:11:12.456Z,6.50
2023-01-18T17:13:41.387Z,7.30
2023-01-18T17:16:16.686Z,7.40
2023-01-18T17:18:47.970Z,7.60
2023-01-18T17:21:16.010Z,7.30
2023-01-18T17:23:48.568Z,7.10
2023-01-18T17:26:15.790Z,7.30
2023-01-18T17:28:42.842Z,8.00
2023-01-18T17:31:12.070Z,7.60
2023-01-18T17:33:42.703Z,8.80
2023-01-18T17:36:10.337Z,6.60
2023-01-18T17:38:44.325Z,5.50
2023-01-18T17:41:27.261Z,6.40
2023-01-18T17:43:58.679Z,6.20
2023-01-18T17:46:25.883Z,6.40
2023-01-18T17:48:52.827Z,4.70
2023-01-18T17:51:22.629Z,4.90
2023-01-18T17:53:51.525Z,6.00
2023-01-18T17:56:54.181Z,5.20
2023-01-18T18:00:01.435Z,4.80
2023-01-18T18:03:25.421Z,5.10
2023-01-18T18:06:02.564Z,5.30
2023-01-18T18:08:30.433Z,5.10
2023-01-18T18:11:00.277Z,4.40
2023-01-18T18:13:27.778Z,5.10
2023-01-18T18:15:56.072Z,5.50
2023-01-18T18:18:23.893Z,3.90
2023-01-18T18:20:57.460Z,5.20
2023-01-18T18:23:25.045Z,4.60
2023-01-18T18:25:51.986Z,4.00
2023-01-18T18:28:19.502Z,4.10
2023-01-18T18:30:50.077Z,5.10
2023-01-18T18:33:18.568Z,4.40
2023-01-18T18:35:49.612Z,4.70
2023-01-18T18:38:18.976Z,4.60
2023-01-18T18:40:47.158Z,5.30
2023-01-18T18:43:15.202Z,5.20
2023-01-18T18:45:42.726Z,4.70
2023-01-18T18:48:13.281Z,5.70
2023-01-18T18:50:40.354Z,5.80
2023-01-18T18:53:07.787Z,4.80
2023-01-18T18:55:35.090Z,4.90
2023-01-18T18:58:04.456Z,5.50
2023-01-18T19:00:31.391Z,5.00
2023-01-18T19:03:01.305Z,5.60
2023-01-18T19:05:28.605Z,4.90
2023-01-18T19:07:55.706Z,6.80
2023-01-18T19:10:27.513Z,7.10
2023-01-18T19:12:55.012Z,5.20
2023-01-18T19:15:22.733Z,5.30
2023-01-18T19:17:51.323Z,5.30
2023-01-18T19:20:20.632Z,5.10
2023-01-18T19:22:51.716Z,4.60
2023-01-18T19:25:22.676Z,5.60
2023-01-18T19:27:50.065Z,4.30
2023-01-18T19:30:24.019Z,5.50
2023-01-18T19:32:51.505Z,4.80
2023-01-18T19:35:20.379Z,5.40
2023-01-18T19:37:56.468Z,5.80
2023-01-18T19:40:23.714Z,4.60
2023-01-18T19:42:55.994Z,5.70
2023-01-18T19:45:28.197Z,5.70
2023-01-18T19:47:57.732Z,5.30
2023-01-18T19:50:25.059Z,5.70
2023-01-18T19:52:53.226Z,5.40
2023-01-18T19:55:21.735Z,5.20
2023-01-18T19:57:52.370Z,6.70
2023-01-18T20:00:19.803Z,4.90
2023-01-18T20:02:47.256Z,5.70
2023-01-18T20:05:15.115Z,5.30
2023-01-18T20:07:44.796Z,5.70
2023-01-18T20:10:12.965Z,5.00
2023-01-18T20:12:39.894Z,5.50
2023-01-18T20:15:08.817Z,5.70
2023-01-18T20:17:38.374Z,5.10
2023-01-18T20:20:05.936Z,5.40
2023-01-18T20:22:32.871Z,5.20
2023-01-18T20:25:02.749Z,5.60
2023-01-18T20:27:29.696Z,6.70
2023-01-18T20:29:58.244Z,5.10
2023-01-18T20:32:25.716Z,6.00
2023-01-18T20:34:53.442Z,5.90
2023-01-18T20:37:21.445Z,6.10
2023-01-18T20:39:50.413Z,5.30
2023-01-18T20:42:17.681Z,5.00
2023-01-18T20:44:49.326Z,5.50
2023-01-18T20:47:16.418Z,5.80
2023-01-18T20:49:44.984Z,5.40
2023-01-18T20:52:12.024Z,4.90
2023-01-18T20:54:39.011Z,5.50
2023-01-18T20:57:06.018Z,5.90
2023-01-18T20:59:33.214Z,5.90
2023-01-18T21:02:00.368Z,5.10
2023-01-18T21:04:27.617Z,4.20
2023-01-18T21:06:57.349Z,7.50
2023-01-18T21:09:28.669Z,5.30
2023-01-18T21:11:55.600Z,5.80
2023-01-18T21:14:23.361Z,5.40
2023-01-18T21:16:50.376Z,4.50
2023-01-18T21:19:18.205Z,4.90
2023-01-18T21:21:45.454Z,6.10
2023-01-18T21:24:12.508Z,6.30
2023-01-18T21:26:39.574Z,4.90
2023-01-18T21:29:33.499Z,5.30
2023-01-18T21:32:05.510Z,5.20
2023-01-18T21:34:33.532Z,6.90
2023-01-18T21:37:00.421Z,5.30
2023-01-18T21:39:29.234Z,5.40
2023-01-18T21:42:14.610Z,4.20
2023-01-18T21:45:00.143Z,5.60
2023-01-18T21:47:27.107Z,5.00
2023-01-18T21:50:17.608Z,6.90
2023-01-18T21:53:06.638Z,4.80
2023-01-18T21:55:34.384Z,4.50
2023-01-18T21:58:19.663Z,5.40
2023-01-18T22:00:47.700Z,5.00
2023-01-18T22:03:15.605Z,5.50
2023-01-18T22:05:42.566Z,5.20
2023-01-18T22:08:09.925Z,5.20
2023-01-18T22:10:36.869Z,5.30
2023-01-18T22:13:03.794Z,5.70
2023-01-18T22:15:30.779Z,5.30
2023-01-18T22:17:58.420Z,7.40
2023-01-18T22:20:27.958Z,7.10
2023-01-18T22:22:55.962Z,6.80
2023-01-18T22:25:23.076Z,6.30
2023-01-18T22:27:50.141Z,6.60
2023-01-18T22:30:17.336Z,6.10
2023-01-18T22:32:44.342Z,6.90
2023-01-18T22:35:11.397Z,6.80
2023-01-18T22:37:38.230Z,6.40
2023-01-18T22:40:05.856Z,6.40
2023-01-18T22:42:33.057Z,7.30
2023-01-18T22:45:02.828Z,6.70
2023-01-18T22:47:29.656Z,7.80
2023-01-18T22:49:57.248Z,7.50
2023-01-18T22:52:25.352Z,7.00
2023-01-18T22:54:52.534Z,6.90
2023-01-18T22:57:19.585Z,8.10
2023-01-18T22:59:47.953Z,6.70
2023-01-18T23:02:15.367Z,7.10
2023-01-18T23:04:42.209Z,8.60
2023-01-18T23:07:09.312Z,6.60
2023-01-18T23:09:36.351Z,7.10
2023-01-18T23:12:04.031Z,7.40
2023-01-18T23:14:50.005Z,7.60
2023-01-18T23:17:35.964Z,6.60
2023-01-18T23:20:03.030Z,6.90
2023-01-18T23:22:31.238Z,6.70
2023-01-18T23:25:00.501Z,8.10
2023-01-18T23:27:27.408Z,7.50
2023-01-18T23:29:57.999Z,7.60
2023-01-18T23:32:28.883Z,8.20
2023-01-18T23:34:59.289Z,7.30
2023-01-18T23:37:26.739Z,8.00
2023-01-18T23:40:12.207Z,8.60
2023-01-18T23:42:58.742Z,8.20
2023-01-18T23:45:44.317Z,7.00
2023-01-18T23:48:31.575Z,8.10
2023-01-18T23:51:17.023Z,8.20
2023-01-18T23:54:03.755Z,7.70
2023-01-18T23:56:30.885Z,7.50
2023-01-18T23:58:59.910Z,7.50
